sensor_id;sensor_type;location;lat;lon;timestamp;pressure;altitude;pressure_sealevel;temperature;humidity
71239;BME280;61342;51.442;7.370;2023-04-03T00:00:04;101389.06;;;3.34;92.79
71239;BME280;61342;51.442;7.370;2023-04-03T00:01:05;101386.69;;;3.33;93.16
71239;BME280;61342;51.442;7.370;2023-04-03T00:02:06;101385.06;;;3.32;93.04
71239;BME280;61342;51.442;7.370;2023-04-03T00:03:06;101377.81;;;3.31;93.10
71239;BME280;61342;51.442;7.370;2023-04-03T00:04:07;101377.94;;;3.27;92.90
71239;BME280;61342;51.442;7.370;2023-04-03T00:05:07;101375.09;;;3.27;93.04
71239;BME280;61342;51.442;7.370;2023-04-03T00:06:08;101374.41;;;3.23;93.09
71239;BME280;61342;51.442;7.370;2023-04-03T00:07:10;101380.41;;;3.25;93.41
71239;BME280;61342;51.442;7.370;2023-04-03T00:08:13;101379.16;;;3.26;93.22
71239;BME280;61342;51.442;7.370;2023-04-03T00:09:13;101376.47;;;3.23;93.34
71239;BME280;61342;51.442;7.370;2023-04-03T00:10:13;101383.72;;;3.24;93.20
71239;BME280;61342;51.442;7.370;2023-04-03T00:11:15;101385.75;;;3.23;93.29
71239;BME280;61342;51.442;7.370;2023-04-03T00:12:16;101379.63;;;3.25;93.65
71239;BME280;61342;51.442;7.370;2023-04-03T00:13:17;101377.69;;;3.22;93.75
71239;BME280;61342;51.442;7.370;2023-04-03T00:14:17;101376.88;;;3.21;93.80
71239;BME280;61342;51.442;7.370;2023-04-03T00:15:18;101382.69;;;3.18;93.75
71239;BME280;61342;51.442;7.370;2023-04-03T00:16:18;101379.84;;;3.18;93.81
71239;BME280;61342;51.442;7.370;2023-04-03T00:17:18;101370.97;;;3.16;93.74
71239;BME280;61342;51.442;7.370;2023-04-03T00:18:19;101386.41;;;3.15;93.78
71239;BME280;61342;51.442;7.370;2023-04-03T00:19:20;101387.56;;;3.17;93.83
71239;BME280;61342;51.442;7.370;2023-04-03T00:20:20;101386.88;;;3.13;93.99
71239;BME280;61342;51.442;7.370;2023-04-03T00:21:21;101392.91;;;3.15;93.76
71239;BME280;61342;51.442;7.370;2023-04-03T00:22:21;101392.22;;;3.11;93.69
71239;BME280;61342;51.442;7.370;2023-04-03T00:23:21;101393.00;;;3.12;93.68
71239;BME280;61342;51.442;7.370;2023-04-03T00:24:23;101393.00;;;3.12;93.74
71239;BME280;61342;51.442;7.370;2023-04-03T00:25:24;101398.34;;;3.10;93.72
71239;BME280;61342;51.442;7.370;2023-04-03T00:26:24;101390.28;;;3.08;93.84
71239;BME280;61342;51.442;7.370;2023-04-03T00:27:25;101392.69;;;3.10;94.13
71239;BME280;61342;51.442;7.370;2023-04-03T00:28:25;101399.25;;;3.07;93.94
71239;BME280;61342;51.442;7.370;2023-04-03T00:29:26;101396.41;;;3.07;93.95
71239;BME280;61342;51.442;7.370;2023-04-03T00:30:27;101403.69;;;3.08;93.99
71239;BME280;61342;51.442;7.370;2023-04-03T00:31:27;101398.44;;;3.06;94.19
71239;BME280;61342;51.442;7.370;2023-04-03T00:32:27;101390.38;;;3.05;94.34
71239;BME280;61342;51.442;7.370;2023-04-03T00:33:28;101387.78;;;2.98;94.13
71239;BME280;61342;51.442;7.370;2023-04-03T00:34:28;101382.41;;;3.00;94.09
71239;BME280;61342;51.442;7.370;2023-04-03T00:35:29;101385.25;;;3.00;94.26
71239;BME280;61342;51.442;7.370;2023-04-03T00:36:29;101393.31;;;3.01;94.19
71239;BME280;61342;51.442;7.370;2023-04-03T00:37:30;101392.53;;;3.01;94.40
71239;BME280;61342;51.442;7.370;2023-04-03T00:38:31;101392.63;;;2.97;94.85
71239;BME280;61342;51.442;7.370;2023-04-03T00:39:31;101391.06;;;2.96;94.52
71239;BME280;61342;51.442;7.370;2023-04-03T00:40:37;101394.69;;;2.97;94.38
71239;BME280;61342;51.442;7.370;2023-04-03T00:41:37;101391.84;;;2.97;94.73
71239;BME280;61342;51.442;7.370;2023-04-03T00:42:39;101399.22;;;2.94;94.36
71239;BME280;61342;51.442;7.370;2023-04-03T00:43:40;101389.91;;;2.94;94.73
71239;BME280;61342;51.442;7.370;2023-04-03T00:45:44;101394.00;;;2.93;94.96
71239;BME280;61342;51.442;7.370;2023-04-03T00:46:45;101396.84;;;2.93;94.95
71239;BME280;61342;51.442;7.370;2023-04-03T00:47:45;101401.69;;;2.92;94.96
71239;BME280;61342;51.442;7.370;2023-04-03T00:48:47;101396.47;;;2.91;95.08
71239;BME280;61342;51.442;7.370;2023-04-03T00:49:48;101394.75;;;2.81;94.58
71239;BME280;61342;51.442;7.370;2023-04-03T00:50:50;101407.50;;;2.89;95.09
71239;BME280;61342;51.442;7.370;2023-04-03T00:51:52;101405.91;;;2.88;95.03
71239;BME280;61342;51.442;7.370;2023-04-03T00:52:53;101403.06;;;2.88;95.25
71239;BME280;61342;51.442;7.370;2023-04-03T00:53:58;101407.25;;;2.84;95.08
71239;BME280;61342;51.442;7.370;2023-04-03T00:55:02;101408.03;;;2.84;95.02
71239;BME280;61342;51.442;7.370;2023-04-03T00:56:05;101397.16;;;2.83;95.12
71239;BME280;61342;51.442;7.370;2023-04-03T00:57:09;101400.44;;;2.81;95.13
71239;BME280;61342;51.442;7.370;2023-04-03T00:58:11;101403.59;;;2.83;95.38
71239;BME280;61342;51.442;7.370;2023-04-03T00:59:15;101404.88;;;2.82;95.40
71239;BME280;61342;51.442;7.370;2023-04-03T01:00:18;101398.84;;;2.80;95.26
71239;BME280;61342;51.442;7.370;2023-04-03T01:01:22;101399.75;;;2.77;95.26
71239;BME280;61342;51.442;7.370;2023-04-03T01:02:23;101405.41;;;2.77;95.42
71239;BME280;61342;51.442;7.370;2023-04-03T01:03:24;101400.63;;;2.74;95.37
71239;BME280;61342;51.442;7.370;2023-04-03T01:04:34;101399.06;;;2.73;95.49
71239;BME280;61342;51.442;7.370;2023-04-03T01:05:34;101396.31;;;2.70;95.62
71239;BME280;61342;51.442;7.370;2023-04-03T01:06:36;101403.47;;;2.74;95.37
71239;BME280;61342;51.442;7.370;2023-04-03T01:07:37;101404.72;;;2.73;95.71
71239;BME280;61342;51.442;7.370;2023-04-03T01:08:38;101401.97;;;2.70;95.48
71239;BME280;61342;51.442;7.370;2023-04-03T01:09:39;101402.44;;;2.68;95.76
71239;BME280;61342;51.442;7.370;2023-04-03T01:10:40;101406.06;;;2.69;95.41
71239;BME280;61342;51.442;7.370;2023-04-03T01:11:40;101408.09;;;2.68;95.77
71239;BME280;61342;51.442;7.370;2023-04-03T01:12:44;101407.31;;;2.68;95.77
71239;BME280;61342;51.442;7.370;2023-04-03T01:13:45;101405.72;;;2.67;95.77
71239;BME280;61342;51.442;7.370;2023-04-03T01:14:47;101403.34;;;2.65;95.76
71239;BME280;61342;51.442;7.370;2023-04-03T01:15:48;101396.97;;;2.61;95.98
71239;BME280;61342;51.442;7.370;2023-04-03T01:16:53;101403.41;;;2.62;95.93
71239;BME280;61342;51.442;7.370;2023-04-03T01:17:56;101407.41;;;2.64;96.10
71239;BME280;61342;51.442;7.370;2023-04-03T01:18:59;101407.88;;;2.63;95.95
71239;BME280;61342;51.442;7.370;2023-04-03T01:23:01;101412.47;;;2.57;96.37
71239;BME280;61342;51.442;7.370;2023-04-03T01:24:21;101412.94;;;2.55;96.13
71239;BME280;61342;51.442;7.370;2023-04-03T01:25:23;101413.28;;;2.57;96.28
71239;BME280;61342;51.442;7.370;2023-04-03T01:26:24;101414.84;;;2.58;96.29
71239;BME280;61342;51.442;7.370;2023-04-03T01:27:25;101410.91;;;2.56;96.39
71239;BME280;61342;51.442;7.370;2023-04-03T01:28:31;101414.84;;;2.58;96.30
71239;BME280;61342;51.442;7.370;2023-04-03T01:29:33;101414.97;;;2.55;96.40
71239;BME280;61342;51.442;7.370;2023-04-03T01:30:36;101415.75;;;2.55;96.54
71239;BME280;61342;51.442;7.370;2023-04-03T01:32:52;101411.69;;;2.56;96.98
71239;BME280;61342;51.442;7.370;2023-04-03T01:33:52;101416.91;;;2.58;96.65
71239;BME280;61342;51.442;7.370;2023-04-03T01:34:53;101415.31;;;2.57;96.79
71239;BME280;61342;51.442;7.370;2023-04-03T01:35:53;101412.38;;;2.60;96.93
71239;BME280;61342;51.442;7.370;2023-04-03T01:36:54;101416.47;;;2.59;97.02
71239;BME280;61342;51.442;7.370;2023-04-03T01:37:54;101411.59;;;2.60;96.81
71239;BME280;61342;51.442;7.370;2023-04-03T01:38:56;101400.34;;;2.56;97.03
71239;BME280;61342;51.442;7.370;2023-04-03T01:39:56;101417.28;;;2.60;96.88
71239;BME280;61342;51.442;7.370;2023-04-03T01:40:57;101407.25;;;2.55;97.29
71239;BME280;61342;51.442;7.370;2023-04-03T01:41:57;101414.06;;;2.58;97.01
71239;BME280;61342;51.442;7.370;2023-04-03T01:42:59;101404.31;;;2.59;97.09
71239;BME280;61342;51.442;7.370;2023-04-03T01:43:59;101412.38;;;2.60;97.08
71239;BME280;61342;51.442;7.370;2023-04-03T01:45:00;101418.06;;;2.60;97.47
71239;BME280;61342;51.442;7.370;2023-04-03T01:46:00;101413.63;;;2.59;97.33
71239;BME280;61342;51.442;7.370;2023-04-03T01:47:00;101411.94;;;2.62;97.25
71239;BME280;61342;51.442;7.370;2023-04-03T01:48:01;101406.72;;;2.60;97.29
71239;BME280;61342;51.442;7.370;2023-04-03T01:49:01;101401.03;;;2.60;97.14
71239;BME280;61342;51.442;7.370;2023-04-03T01:50:02;101408.75;;;2.60;97.38
71239;BME280;61342;51.442;7.370;2023-04-03T01:51:02;101416.38;;;2.63;97.36
71239;BME280;61342;51.442;7.370;2023-04-03T01:52:03;101413.16;;;2.61;97.23
71239;BME280;61342;51.442;7.370;2023-04-03T01:53:03;101409.09;;;2.62;97.29
71239;BME280;61342;51.442;7.370;2023-04-03T01:54:03;101418.41;;;2.62;97.50
71239;BME280;61342;51.442;7.370;2023-04-03T01:55:04;101391.59;;;2.51;97.45
71239;BME280;61342;51.442;7.370;2023-04-03T01:56:05;101415.13;;;2.64;97.64
71239;BME280;61342;51.442;7.370;2023-04-03T01:57:05;101412.72;;;2.62;97.39
71239;BME280;61342;51.442;7.370;2023-04-03T01:58:06;101411.47;;;2.63;97.64
71239;BME280;61342;51.442;7.370;2023-04-03T01:59:06;101411.47;;;2.63;97.59
71239;BME280;61342;51.442;7.370;2023-04-03T02:00:07;101411.03;;;2.65;97.48
71239;BME280;61342;51.442;7.370;2023-04-03T02:01:07;101409.00;;;2.65;97.59
71239;BME280;61342;51.442;7.370;2023-04-03T02:02:08;101404.56;;;2.64;97.52
71239;BME280;61342;51.442;7.370;2023-04-03T02:03:08;101411.03;;;2.65;97.47
71239;BME280;61342;51.442;7.370;2023-04-03T02:04:09;101414.31;;;2.63;97.62
71239;BME280;61342;51.442;7.370;2023-04-03T02:05:09;101413.41;;;2.66;97.43
71239;BME280;61342;51.442;7.370;2023-04-03T02:06:19;101411.84;;;2.65;97.80
71239;BME280;61342;51.442;7.370;2023-04-03T02:07:19;101414.22;;;2.67;97.54
71239;BME280;61342;51.442;7.370;2023-04-03T02:08:19;101417.84;;;2.67;97.63
71239;BME280;61342;51.442;7.370;2023-04-03T02:09:20;101413.78;;;2.68;97.81
71239;BME280;61342;51.442;7.370;2023-04-03T02:10:20;101406.16;;;2.65;97.67
71239;BME280;61342;51.442;7.370;2023-04-03T02:11:21;101414.56;;;2.69;97.80
71239;BME280;61342;51.442;7.370;2023-04-03T02:12:21;101422.63;;;2.70;97.86
71239;BME280;61342;51.442;7.370;2023-04-03T02:13:21;101409.69;;;2.69;97.75
71239;BME280;61342;51.442;7.370;2023-04-03T02:14:22;101418.56;;;2.71;97.64
71239;BME280;61342;51.442;7.370;2023-04-03T02:15:23;101410.94;;;2.68;97.59
71239;BME280;61342;51.442;7.370;2023-04-03T02:16:23;101413.69;;;2.72;97.80
71239;BME280;61342;51.442;7.370;2023-04-03T02:17:24;101413.78;;;2.68;97.79
71239;BME280;61342;51.442;7.370;2023-04-03T02:18:24;101426.16;;;2.74;97.82
71239;BME280;61342;51.442;7.370;2023-04-03T02:19:25;101423.31;;;2.74;97.50
71239;BME280;61342;51.442;7.370;2023-04-03T02:20:25;101416.94;;;2.70;97.46
71239;BME280;61342;51.442;7.370;2023-04-03T02:21:26;101424.59;;;2.73;97.69
71239;BME280;61342;51.442;7.370;2023-04-03T02:22:26;101417.66;;;2.74;97.81
71239;BME280;61342;51.442;7.370;2023-04-03T02:23:26;101425.75;;;2.76;97.42
71239;BME280;61342;51.442;7.370;2023-04-03T02:24:27;101442.78;;;2.76;97.22
71239;BME280;61342;51.442;7.370;2023-04-03T02:25:27;101423.69;;;2.76;97.43
71239;BME280;61342;51.442;7.370;2023-04-03T02:26:28;101439.47;;;2.77;97.46
71239;BME280;61342;51.442;7.370;2023-04-03T02:27:28;101428.31;;;2.70;97.63
71239;BME280;61342;51.442;7.370;2023-04-03T02:28:28;101428.22;;;2.74;97.49
71239;BME280;61342;51.442;7.370;2023-04-03T02:29:29;101426.53;;;2.76;97.56
71239;BME280;61342;51.442;7.370;2023-04-03T02:30:29;101426.53;;;2.76;97.27
71239;BME280;61342;51.442;7.370;2023-04-03T02:31:30;101426.53;;;2.76;97.26
71239;BME280;61342;51.442;7.370;2023-04-03T02:32:31;101434.59;;;2.78;97.26
71239;BME280;61342;51.442;7.370;2023-04-03T02:33:31;101420.06;;;2.76;97.48
71239;BME280;61342;51.442;7.370;2023-04-03T02:34:32;101439.47;;;2.77;97.20
71239;BME280;61342;51.442;7.370;2023-04-03T02:35:32;101425.47;;;2.70;97.47
71239;BME280;61342;51.442;7.370;2023-04-03T02:36:33;101433.81;;;2.77;97.27
71239;BME280;61342;51.442;7.370;2023-04-03T02:37:33;101435.41;;;2.78;97.50
71239;BME280;61342;51.442;7.370;2023-04-03T02:38:34;101424.13;;;2.75;97.11
71239;BME280;61342;51.442;7.370;2023-04-03T02:39:35;101429.28;;;2.80;97.28
71239;BME280;61342;51.442;7.370;2023-04-03T02:40:35;101417.06;;;2.67;97.25
71239;BME280;61342;51.442;7.370;2023-04-03T02:41:36;101433.81;;;2.77;97.11
71239;BME280;61342;51.442;7.370;2023-04-03T02:42:38;101443.47;;;2.80;97.23
71239;BME280;61342;51.442;7.370;2023-04-03T02:43:38;101440.25;;;2.78;97.03
71239;BME280;61342;51.442;7.370;2023-04-03T02:44:39;101430.72;;;2.72;96.91
71239;BME280;61342;51.442;7.370;2023-04-03T02:45:39;101433.34;;;2.79;97.02
71239;BME280;61342;51.442;7.370;2023-04-03T02:46:40;101436.63;;;2.77;96.87
71239;BME280;61342;51.442;7.370;2023-04-03T02:47:40;101441.41;;;2.80;96.84
71239;BME280;61342;51.442;7.370;2023-04-03T02:48:41;101439.03;;;2.79;96.83
71239;BME280;61342;51.442;7.370;2023-04-03T02:49:41;101441.09;;;2.78;96.83
71239;BME280;61342;51.442;7.370;2023-04-03T02:50:44;101443.09;;;2.78;96.97
71239;BME280;61342;51.442;7.370;2023-04-03T02:51:44;101433.81;;;2.77;96.82
71239;BME280;61342;51.442;7.370;2023-04-03T02:52:45;101444.25;;;2.80;96.91
71239;BME280;61342;51.442;7.370;2023-04-03T02:53:46;101441.09;;;2.78;96.66
71239;BME280;61342;51.442;7.370;2023-04-03T02:54:46;101445.84;;;2.81;96.67
71239;BME280;61342;51.442;7.370;2023-04-03T02:55:47;101445.50;;;2.79;96.74
71239;BME280;61342;51.442;7.370;2023-04-03T02:56:47;101452.31;;;2.82;96.65
71239;BME280;61342;51.442;7.370;2023-04-03T02:57:48;101447.88;;;2.81;96.42
71239;BME280;61342;51.442;7.370;2023-04-03T02:58:48;101442.19;;;2.81;96.70
71239;BME280;61342;51.442;7.370;2023-04-03T02:59:49;101446.31;;;2.80;96.43
71239;BME280;61342;51.442;7.370;2023-04-03T03:00:49;101437.78;;;2.80;96.46
71239;BME280;61342;51.442;7.370;2023-04-03T03:01:49;101440.19;;;2.81;96.35
71239;BME280;61342;51.442;7.370;2023-04-03T03:02:50;101447.09;;;2.80;96.47
71239;BME280;61342;51.442;7.370;2023-04-03T03:03:50;101449.94;;;2.80;96.25
71239;BME280;61342;51.442;7.370;2023-04-03T03:04:50;101447.09;;;2.80;96.40
71239;BME280;61342;51.442;7.370;2023-04-03T03:07:03;101448.31;;;2.79;96.26
71239;BME280;61342;51.442;7.370;2023-04-03T03:08:04;101442.66;;;2.79;96.32
71239;BME280;61342;51.442;7.370;2023-04-03T03:09:04;101443.56;;;2.76;96.23
71239;BME280;61342;51.442;7.370;2023-04-03T03:10:06;101437.78;;;2.80;96.15
71239;BME280;61342;51.442;7.370;2023-04-03T03:11:06;101441.41;;;2.80;96.27
71239;BME280;61342;51.442;7.370;2023-04-03T03:12:07;101445.50;;;2.79;96.15
71239;BME280;61342;51.442;7.370;2023-04-03T03:13:07;101441.09;;;2.78;96.12
71239;BME280;61342;51.442;7.370;2023-04-03T03:14:07;101435.50;;;2.75;96.48
71239;BME280;61342;51.442;7.370;2023-04-03T03:15:08;101437.50;;;2.74;96.28
71239;BME280;61342;51.442;7.370;2023-04-03T03:16:09;101437.44;;;2.78;96.10
71239;BME280;61342;51.442;7.370;2023-04-03T03:17:09;101437.09;;;2.76;96.10
71239;BME280;61342;51.442;7.370;2023-04-03T03:18:09;101438.25;;;2.78;95.94
71239;BME280;61342;51.442;7.370;2023-04-03T03:19:10;101441.88;;;2.79;95.73
71239;BME280;61342;51.442;7.370;2023-04-03T03:20:11;101430.16;;;2.77;96.08
71239;BME280;61342;51.442;7.370;2023-04-03T03:21:12;101432.66;;;2.75;95.85
71239;BME280;61342;51.442;7.370;2023-04-03T03:22:12;101432.19;;;2.76;96.15
71239;BME280;61342;51.442;7.370;2023-04-03T03:23:13;101434.69;;;2.74;95.84
71239;BME280;61342;51.442;7.370;2023-04-03T03:24:13;101441.50;;;2.77;95.95
71239;BME280;61342;51.442;7.370;2023-04-03T03:25:15;101435.81;;;2.77;95.96
71239;BME280;61342;51.442;7.370;2023-04-03T03:26:16;101441.16;;;2.75;96.00
71239;BME280;61342;51.442;7.370;2023-04-03T03:27:16;101434.69;;;2.74;95.85
71239;BME280;61342;51.442;7.370;2023-04-03T03:28:16;101443.19;;;2.74;95.82
71239;BME280;61342;51.442;7.370;2023-04-03T03:29:17;101443.56;;;2.76;95.79
71239;BME280;61342;51.442;7.370;2023-04-03T03:30:17;101429.56;;;2.69;95.64
71239;BME280;61342;51.442;7.370;2023-04-03T03:31:18;101439.31;;;2.68;95.85
71239;BME280;61342;51.442;7.370;2023-04-03T03:32:18;101439.31;;;2.68;95.75
71239;BME280;61342;51.442;7.370;2023-04-03T03:33:18;101432.88;;;2.68;95.59
71239;BME280;61342;51.442;7.370;2023-04-03T03:34:19;101440.34;;;2.74;95.79
71239;BME280;61342;51.442;7.370;2023-04-03T03:35:20;101439.13;;;2.75;95.79
71239;BME280;61342;51.442;7.370;2023-04-03T03:36:20;101441.94;;;2.75;95.78
71239;BME280;61342;51.442;7.370;2023-04-03T03:37:21;101429.66;;;2.66;95.69
71239;BME280;61342;51.442;7.370;2023-04-03T03:38:22;101442.78;;;2.76;95.47
71239;BME280;61342;51.442;7.370;2023-04-03T03:39:22;101448.88;;;2.74;95.52
71239;BME280;61342;51.442;7.370;2023-04-03T03:40:23;101446.03;;;2.74;95.56
71239;BME280;61342;51.442;7.370;2023-04-03T03:41:23;101451.38;;;2.72;95.45
71239;BME280;61342;51.442;7.370;2023-04-03T03:42:23;101441.25;;;2.71;95.49
71239;BME280;61342;51.442;7.370;2023-04-03T03:43:24;101425.78;;;2.60;95.78
71239;BME280;61342;51.442;7.370;2023-04-03T03:44:24;101444.91;;;2.72;95.32
71239;BME280;61342;51.442;7.370;2023-04-03T03:45:25;101447.75;;;2.72;95.25
71239;BME280;61342;51.442;7.370;2023-04-03T03:46:35;101442.16;;;2.68;95.37
71239;BME280;61342;51.442;7.370;2023-04-03T03:47:35;101442.16;;;2.68;95.41
71239;BME280;61342;51.442;7.370;2023-04-03T03:48:35;101443.75;;;2.69;95.26
71239;BME280;61342;51.442;7.370;2023-04-03T03:49:36;101431.78;;;2.62;95.34
71239;BME280;61342;51.442;7.370;2023-04-03T03:50:36;101443.06;;;2.65;95.52
71239;BME280;61342;51.442;7.370;2023-04-03T03:51:37;101443.75;;;2.69;95.47
71239;BME280;61342;51.442;7.370;2023-04-03T03:52:37;101440.56;;;2.67;95.15
71239;BME280;61342;51.442;7.370;2023-04-03T03:53:38;101440.56;;;2.67;95.52
71239;BME280;61342;51.442;7.370;2023-04-03T03:54:39;101447.59;;;2.63;95.07
71239;BME280;61342;51.442;7.370;2023-04-03T03:55:39;101442.25;;;2.65;95.42
71239;BME280;61342;51.442;7.370;2023-04-03T03:56:40;101438.63;;;2.64;95.24
71239;BME280;61342;51.442;7.370;2023-04-03T03:57:41;101454.03;;;2.63;95.48
71239;BME280;61342;51.442;7.370;2023-04-03T03:58:41;101449.59;;;2.62;95.39
71239;BME280;61342;51.442;7.370;2023-04-03T03:59:42;101450.44;;;2.63;95.37
71239;BME280;61342;51.442;7.370;2023-04-03T04:00:44;101434.31;;;2.60;95.50
71239;BME280;61342;51.442;7.370;2023-04-03T04:01:44;101432.25;;;2.60;95.39
71239;BME280;61342;51.442;7.370;2023-04-03T04:02:45;101443.59;;;2.60;95.12
71239;BME280;61342;51.442;7.370;2023-04-03T04:03:46;101448.81;;;2.62;95.43
71239;BME280;61342;51.442;7.370;2023-04-03T04:04:46;101446.00;;;2.62;95.25
71239;BME280;61342;51.442;7.370;2023-04-03T04:05:46;101449.72;;;2.59;95.41
71239;BME280;61342;51.442;7.370;2023-04-03T04:06:47;101433.69;;;2.52;95.35
71239;BME280;61342;51.442;7.370;2023-04-03T04:07:48;101452.91;;;2.61;95.32
71239;BME280;61342;51.442;7.370;2023-04-03T04:08:48;101454.59;;;2.58;95.34
71239;BME280;61342;51.442;7.370;2023-04-03T04:09:49;101456.63;;;2.58;95.41
71239;BME280;61342;51.442;7.370;2023-04-03T04:10:49;101452.19;;;2.57;95.27
71239;BME280;61342;51.442;7.370;2023-04-03T04:11:49;101456.19;;;2.59;95.26
71239;BME280;61342;51.442;7.370;2023-04-03T04:12:50;101449.03;;;2.55;95.25
71239;BME280;61342;51.442;7.370;2023-04-03T04:13:51;101455.41;;;2.59;95.25
71239;BME280;61342;51.442;7.370;2023-04-03T04:14:51;101448.22;;;2.54;95.33
71239;BME280;61342;51.442;7.370;2023-04-03T04:15:52;101443.44;;;2.51;95.48
71239;BME280;61342;51.442;7.370;2023-04-03T04:16:52;101454.25;;;2.56;95.22
71239;BME280;61342;51.442;7.370;2023-04-03T04:17:52;101457.09;;;2.56;95.27
71239;BME280;61342;51.442;7.370;2023-04-03T04:18:53;101451.41;;;2.56;95.32
71239;BME280;61342;51.442;7.370;2023-04-03T04:19:53;101449.91;;;2.52;95.24
71239;BME280;61342;51.442;7.370;2023-04-03T04:20:54;101452.31;;;2.53;95.55
71239;BME280;61342;51.442;7.370;2023-04-03T04:21:54;101453.09;;;2.54;95.15
71239;BME280;61342;51.442;7.370;2023-04-03T04:22:55;101458.97;;;2.47;95.41
71239;BME280;61342;51.442;7.370;2023-04-03T04:23:55;101458.78;;;2.54;95.39
71239;BME280;61342;51.442;7.370;2023-04-03T04:24:55;101470.56;;;2.52;95.28
71239;BME280;61342;51.442;7.370;2023-04-03T04:25:56;101458.00;;;2.53;95.19
71239;BME280;61342;51.442;7.370;2023-04-03T04:26:56;101465.69;;;2.53;95.16
71239;BME280;61342;51.442;7.370;2023-04-03T04:27:57;101461.25;;;2.52;95.38
71239;BME280;61342;51.442;7.370;2023-04-03T04:28:57;101460.91;;;2.50;95.40
71239;BME280;61342;51.442;7.370;2023-04-03T04:29:57;101464.19;;;2.48;95.33
71239;BME280;61342;51.442;7.370;2023-04-03T04:30:58;101462.50;;;2.51;95.06
71239;BME280;61342;51.442;7.370;2023-04-03T04:31:58;101449.38;;;2.41;95.25
71239;BME280;61342;51.442;7.370;2023-04-03T04:32:58;101467.03;;;2.48;95.30
71239;BME280;61342;51.442;7.370;2023-04-03T04:33:59;101465.44;;;2.47;95.18
71239;BME280;61342;51.442;7.370;2023-04-03T04:35:00;101458.16;;;2.46;94.84
71239;BME280;61342;51.442;7.370;2023-04-03T04:36:01;101461.00;;;2.46;95.24
71239;BME280;61342;51.442;7.370;2023-04-03T04:37:01;101461.00;;;2.46;95.00
71239;BME280;61342;51.442;7.370;2023-04-03T04:38:01;101455.78;;;2.45;95.32
71239;BME280;61342;51.442;7.370;2023-04-03T04:39:02;101465.19;;;2.42;95.32
71239;BME280;61342;51.442;7.370;2023-04-03T04:40:03;101454.38;;;2.37;95.14
71239;BME280;61342;51.442;7.370;2023-04-03T04:41:03;101461.56;;;2.41;95.13
71239;BME280;61342;51.442;7.370;2023-04-03T04:42:04;101453.75;;;2.29;95.04
71239;BME280;61342;51.442;7.370;2023-04-03T04:43:05;101476.06;;;2.43;95.17
71239;BME280;61342;51.442;7.370;2023-04-03T04:44:05;101469.69;;;2.39;94.96
71239;BME280;61342;51.442;7.370;2023-04-03T04:45:06;101460.94;;;2.34;94.93
71239;BME280;61342;51.442;7.370;2023-04-03T04:46:09;101469.69;;;2.39;95.35
71239;BME280;61342;51.442;7.370;2023-04-03T04:47:12;101480.25;;;2.39;95.25
71239;BME280;61342;51.442;7.370;2023-04-03T04:48:12;101473.44;;;2.36;95.17
71239;BME280;61342;51.442;7.370;2023-04-03T04:49:12;101481.03;;;2.39;95.28
71239;BME280;61342;51.442;7.370;2023-04-03T04:50:13;101477.50;;;2.35;95.23
71239;BME280;61342;51.442;7.370;2023-04-03T04:51:14;101481.50;;;2.38;95.31
71239;BME280;61342;51.442;7.370;2023-04-03T04:52:15;101479.56;;;2.35;95.31
71239;BME280;61342;51.442;7.370;2023-04-03T04:53:15;101485.75;;;2.30;95.45
71239;BME280;61342;51.442;7.370;2023-04-03T04:54:16;101492.47;;;2.36;95.42
71239;BME280;61342;51.442;7.370;2023-04-03T04:55:16;101492.47;;;2.36;95.44
71239;BME280;61342;51.442;7.370;2023-04-03T04:56:16;101494.53;;;2.35;95.31
71239;BME280;61342;51.442;7.370;2023-04-03T04:57:17;101472.19;;;2.22;95.38
71239;BME280;61342;51.442;7.370;2023-04-03T04:58:17;101477.78;;;2.25;95.48
71239;BME280;61342;51.442;7.370;2023-04-03T04:59:17;101489.38;;;2.30;95.48
71239;BME280;61342;51.442;7.370;2023-04-03T05:00:18;101490.53;;;2.33;95.31
71239;BME280;61342;51.442;7.370;2023-04-03T05:01:19;101489.75;;;2.32;95.32
71239;BME280;61342;51.442;7.370;2023-04-03T05:02:19;101482.91;;;2.30;95.64
71239;BME280;61342;51.442;7.370;2023-04-03T05:03:19;101486.53;;;2.30;95.33
71239;BME280;61342;51.442;7.370;2023-04-03T05:04:20;101490.97;;;2.31;95.50
71239;BME280;61342;51.442;7.370;2023-04-03T05:05:20;101491.44;;;2.30;95.40
71239;BME280;61342;51.442;7.370;2023-04-03T05:06:20;101486.19;;;2.28;95.42
71239;BME280;61342;51.442;7.370;2023-04-03T05:07:21;101485.38;;;2.28;95.35
71239;BME280;61342;51.442;7.370;2023-04-03T05:08:22;101490.72;;;2.26;95.24
71239;BME280;61342;51.442;7.370;2023-04-03T05:09:22;101493.09;;;2.28;95.34
71239;BME280;61342;51.442;7.370;2023-04-03T05:10:22;101490.78;;;2.23;95.59
71239;BME280;61342;51.442;7.370;2023-04-03T05:11:23;101494.00;;;2.25;95.48
71239;BME280;61342;51.442;7.370;2023-04-03T05:12:24;101494.44;;;2.23;95.35
71239;BME280;61342;51.442;7.370;2023-04-03T05:13:24;101501.25;;;2.26;95.30
71239;BME280;61342;51.442;7.370;2023-04-03T05:14:25;101490.53;;;2.17;95.68
71239;BME280;61342;51.442;7.370;2023-04-03T05:15:26;101495.22;;;2.24;95.58
71239;BME280;61342;51.442;7.370;2023-04-03T05:16:26;101497.69;;;2.22;95.73
71239;BME280;61342;51.442;7.370;2023-04-03T05:17:26;101499.75;;;2.21;95.65
71239;BME280;61342;51.442;7.370;2023-04-03T05:18:27;101503.38;;;2.22;95.78
71239;BME280;61342;51.442;7.370;2023-04-03T05:19:27;101505.78;;;2.23;95.78
71239;BME280;61342;51.442;7.370;2023-04-03T05:20:27;101505.78;;;2.23;95.51
71239;BME280;61342;51.442;7.370;2023-04-03T05:21:28;101503.38;;;2.22;95.72
71239;BME280;61342;51.442;7.370;2023-04-03T05:22:32;101496.19;;;2.17;95.84
71239;BME280;61342;51.442;7.370;2023-04-03T05:23:32;101497.09;;;2.14;95.80
71239;BME280;61342;51.442;7.370;2023-04-03T05:24:33;101505.50;;;2.18;95.78
71239;BME280;61342;51.442;7.370;2023-04-03T05:25:33;101514.38;;;2.20;95.75
71239;BME280;61342;51.442;7.370;2023-04-03T05:26:33;101515.97;;;2.21;95.86
71239;BME280;61342;51.442;7.370;2023-04-03T05:27:34;101514.38;;;2.20;95.77
71239;BME280;61342;51.442;7.370;2023-04-03T05:28:34;101526.06;;;2.22;96.06